This is the latest recevied weather packets stored in our database for station/object AD6NH. If no packets are shown the sender has not sent any weather packets the latest 10 day(s).
| Time | Temp. | Humidity | Pressure | Rain* | Wind** | Luminosity | Snow |
|---|---|---|---|---|---|---|---|
| 1777866423 | 16.11° C | 70% | 1015.2 hPa | 0 mm | - | - | - |
| 1777865823 | 16.11° C | 69% | 1015.1 hPa | 0 mm | - | - | - |
| 1777865222 | 16.11° C | 67% | 1014.9 hPa | 0 mm | - | - | - |
| 1777864623 | 16.11° C | 67% | 1014.7 hPa | 0 mm | - | - | - |
| 1777864022 | 16.67° C | 65% | 1014.7 hPa | 0 mm | - | - | - |
| 1777863422 | 16.67° C | 64% | 1014.5 hPa | 0 mm | - | - | - |
| 1777862822 | 16.67° C | 64% | 1014.6 hPa | 0 mm | - | - | - |
| 1777862222 | 16.67° C | 65% | 1014.6 hPa | 0 mm | - | - | - |
| 1777861622 | 16.67° C | 64% | 1014.5 hPa | 0 mm | - | - | - |
| 1777861022 | 16.67° C | 62% | 1014.3 hPa | 0 mm | - | - | - |
| 1777860422 | 17.22° C | 59% | 1014.2 hPa | 0 mm | - | - | - |
| 1777859823 | 17.22° C | 60% | 1014.1 hPa | 0 mm | - | - | - |
| 1777859222 | 17.78° C | 58% | 1014 hPa | 0 mm | - | - | - |
| 1777858622 | 18.33° C | 54% | 1013.7 hPa | 0 mm | - | - | - |
| 1777858023 | 18.33° C | 55% | 1013.9 hPa | 0 mm | - | - | - |
| 1777857422 | 18.33° C | 57% | 1013.7 hPa | 0 mm | - | - | - |
| 1777856822 | 18.33° C | 58% | 1013.6 hPa | 0 mm | - | - | - |
| 1777856223 | 18.89° C | 57% | 1013.6 hPa | 0 mm | - | - | - |
| 1777855622 | 18.33° C | 60% | 1013.6 hPa | 0 mm | - | - | - |
| 1777855022 | 18.89° C | 56% | 1013.5 hPa | 0 mm | - | - | - |
| 1777854422 | 19.44° C | 55% | 1013.5 hPa | 0 mm | - | - | - |
| 1777853822 | 19.44° C | 55% | 1013.4 hPa | 0 mm | - | - | - |
| 1777853222 | 19.44° C | 55% | 1013.2 hPa | 0 mm | - | - | - |
| 1777852622 | 20° C | 54% | 1013.1 hPa | 0 mm | - | - | - |
| 1777852022 | 19.44° C | 53% | 1013 hPa | 0 mm | - | - | - |
* Rain latest hour (hover to see other rain measurements)
** Current wind speed in m/s (hover to see current wind gust speed)